sensor_id;sensor_type;location;lat;lon;timestamp;temperature;humidity
6758;DHT22;3416;53.074;8.822;2023-03-01T00:01:10;2.50;99.90
6758;DHT22;3416;53.074;8.822;2023-03-01T00:03:41;2.50;99.90
6758;DHT22;3416;53.074;8.822;2023-03-01T00:06:09;2.40;99.90
6758;DHT22;3416;53.074;8.822;2023-03-01T00:08:36;2.40;99.90
6758;DHT22;3416;53.074;8.822;2023-03-01T00:11:12;2.40;99.90
6758;DHT22;3416;53.074;8.822;2023-03-01T00:13:41;2.40;99.90
6758;DHT22;3416;53.074;8.822;2023-03-01T00:16:29;2.40;99.90
6758;DHT22;3416;53.074;8.822;2023-03-01T00:19:12;2.40;99.90
6758;DHT22;3416;53.074;8.822;2023-03-01T00:21:39;2.40;99.90
6758;DHT22;3416;53.074;8.822;2023-03-01T00:24:08;2.40;99.90
6758;DHT22;3416;53.074;8.822;2023-03-01T00:26:36;2.30;99.90
6758;DHT22;3416;53.074;8.822;2023-03-01T00:29:03;2.30;99.90
6758;DHT22;3416;53.074;8.822;2023-03-01T00:31:33;2.30;99.90
6758;DHT22;3416;53.074;8.822;2023-03-01T00:34:02;2.20;99.90
6758;DHT22;3416;53.074;8.822;2023-03-01T00:36:32;2.30;99.90
6758;DHT22;3416;53.074;8.822;2023-03-01T00:38:59;2.10;99.90
6758;DHT22;3416;53.074;8.822;2023-03-01T00:41:26;2.00;99.90
6758;DHT22;3416;53.074;8.822;2023-03-01T00:44:12;2.00;99.90
6758;DHT22;3416;53.074;8.822;2023-03-01T00:46:42;1.90;99.90
6758;DHT22;3416;53.074;8.822;2023-03-01T00:49:10;1.90;99.90
6758;DHT22;3416;53.074;8.822;2023-03-01T00:51:37;1.90;99.90
6758;DHT22;3416;53.074;8.822;2023-03-01T00:54:08;1.90;99.90
6758;DHT22;3416;53.074;8.822;2023-03-01T00:56:35;1.90;99.90
6758;DHT22;3416;53.074;8.822;2023-03-01T00:59:03;1.90;99.90
6758;DHT22;3416;53.074;8.822;2023-03-01T01:01:31;1.90;99.90
6758;DHT22;3416;53.074;8.822;2023-03-01T01:04:02;1.90;99.90
6758;DHT22;3416;53.074;8.822;2023-03-01T01:06:32;1.90;99.90
6758;DHT22;3416;53.074;8.822;2023-03-01T01:09:03;1.90;99.90
6758;DHT22;3416;53.074;8.822;2023-03-01T01:11:31;1.90;99.90
6758;DHT22;3416;53.074;8.822;2023-03-01T01:14:07;1.80;99.90
6758;DHT22;3416;53.074;8.822;2023-03-01T01:16:34;1.70;99.90
6758;DHT22;3416;53.074;8.822;2023-03-01T01:19:03;1.70;99.90
6758;DHT22;3416;53.074;8.822;2023-03-01T01:21:30;1.60;99.90
6758;DHT22;3416;53.074;8.822;2023-03-01T01:23:58;1.50;99.90
6758;DHT22;3416;53.074;8.822;2023-03-01T01:26:26;1.40;99.90
6758;DHT22;3416;53.074;8.822;2023-03-01T01:28:54;1.50;99.90
6758;DHT22;3416;53.074;8.822;2023-03-01T01:31:22;1.50;99.90
6758;DHT22;3416;53.074;8.822;2023-03-01T01:33:50;1.50;99.90
6758;DHT22;3416;53.074;8.822;2023-03-01T01:36:18;1.40;99.90
6758;DHT22;3416;53.074;8.822;2023-03-01T01:38:46;1.40;99.90
6758;DHT22;3416;53.074;8.822;2023-03-01T01:41:14;1.20;99.90
6758;DHT22;3416;53.074;8.822;2023-03-01T01:43:43;1.40;99.90
6758;DHT22;3416;53.074;8.822;2023-03-01T01:46:17;1.50;99.90
6758;DHT22;3416;53.074;8.822;2023-03-01T01:48:52;1.70;99.90
6758;DHT22;3416;53.074;8.822;2023-03-01T01:51:27;1.70;99.90
6758;DHT22;3416;53.074;8.822;2023-03-01T01:53:57;1.80;99.90
6758;DHT22;3416;53.074;8.822;2023-03-01T01:56:29;1.80;99.90
6758;DHT22;3416;53.074;8.822;2023-03-01T01:58:57;1.70;99.90
6758;DHT22;3416;53.074;8.822;2023-03-01T02:01:25;1.80;99.90
6758;DHT22;3416;53.074;8.822;2023-03-01T02:03:52;1.80;99.90
6758;DHT22;3416;53.074;8.822;2023-03-01T02:06:24;1.90;99.90
6758;DHT22;3416;53.074;8.822;2023-03-01T02:08:56;2.00;99.90
6758;DHT22;3416;53.074;8.822;2023-03-01T02:11:25;2.00;99.90
6758;DHT22;3416;53.074;8.822;2023-03-01T02:13:53;2.00;99.90
6758;DHT22;3416;53.074;8.822;2023-03-01T02:16:20;2.00;99.90
6758;DHT22;3416;53.074;8.822;2023-03-01T02:18:48;2.00;99.90
6758;DHT22;3416;53.074;8.822;2023-03-01T02:21:30;2.00;99.90
6758;DHT22;3416;53.074;8.822;2023-03-01T02:24:06;1.90;99.90
6758;DHT22;3416;53.074;8.822;2023-03-01T02:26:42;1.90;99.90
6758;DHT22;3416;53.074;8.822;2023-03-01T02:29:13;2.00;99.90
6758;DHT22;3416;53.074;8.822;2023-03-01T02:31:40;1.90;99.90
6758;DHT22;3416;53.074;8.822;2023-03-01T02:34:14;1.90;99.90
6758;DHT22;3416;53.074;8.822;2023-03-01T02:36:44;1.90;99.90
6758;DHT22;3416;53.074;8.822;2023-03-01T02:39:16;1.80;99.90
6758;DHT22;3416;53.074;8.822;2023-03-01T02:41:47;1.70;99.90
6758;DHT22;3416;53.074;8.822;2023-03-01T02:44:17;1.60;99.90
6758;DHT22;3416;53.074;8.822;2023-03-01T02:46:47;1.60;99.90
6758;DHT22;3416;53.074;8.822;2023-03-01T02:49:21;1.60;99.90
6758;DHT22;3416;53.074;8.822;2023-03-01T02:54:42;1.50;99.90
6758;DHT22;3416;53.074;8.822;2023-03-01T02:57:31;1.50;99.90
6758;DHT22;3416;53.074;8.822;2023-03-01T03:00:03;1.50;99.90
6758;DHT22;3416;53.074;8.822;2023-03-01T03:02:33;1.40;99.90
6758;DHT22;3416;53.074;8.822;2023-03-01T03:05:06;1.30;99.90
6758;DHT22;3416;53.074;8.822;2023-03-01T03:07:35;1.30;99.90
6758;DHT22;3416;53.074;8.822;2023-03-01T03:10:05;1.20;99.90
6758;DHT22;3416;53.074;8.822;2023-03-01T03:12:32;1.10;99.90
6758;DHT22;3416;53.074;8.822;2023-03-01T03:15:01;1.10;99.90
6758;DHT22;3416;53.074;8.822;2023-03-01T03:17:34;0.90;99.90
6758;DHT22;3416;53.074;8.822;2023-03-01T03:20:01;1.10;99.90
6758;DHT22;3416;53.074;8.822;2023-03-01T03:22:29;1.10;99.90
6758;DHT22;3416;53.074;8.822;2023-03-01T03:24:56;1.10;99.90
6758;DHT22;3416;53.074;8.822;2023-03-01T03:27:23;1.20;99.90
6758;DHT22;3416;53.074;8.822;2023-03-01T03:29:50;1.20;99.90
6758;DHT22;3416;53.074;8.822;2023-03-01T03:32:18;1.10;99.90
6758;DHT22;3416;53.074;8.822;2023-03-01T03:34:46;1.10;99.90
6758;DHT22;3416;53.074;8.822;2023-03-01T03:37:16;1.10;99.90
6758;DHT22;3416;53.074;8.822;2023-03-01T03:39:58;1.20;99.90
6758;DHT22;3416;53.074;8.822;2023-03-01T03:42:26;1.20;99.90
6758;DHT22;3416;53.074;8.822;2023-03-01T03:45:01;1.20;99.90
6758;DHT22;3416;53.074;8.822;2023-03-01T03:47:29;1.10;99.90
6758;DHT22;3416;53.074;8.822;2023-03-01T03:50:21;1.00;99.90
6758;DHT22;3416;53.074;8.822;2023-03-01T03:52:48;1.00;99.90
6758;DHT22;3416;53.074;8.822;2023-03-01T03:55:16;0.90;99.90
6758;DHT22;3416;53.074;8.822;2023-03-01T03:57:45;0.90;99.90
6758;DHT22;3416;53.074;8.822;2023-03-01T04:00:18;0.80;99.90
6758;DHT22;3416;53.074;8.822;2023-03-01T04:02:47;0.80;99.90
6758;DHT22;3416;53.074;8.822;2023-03-01T04:05:16;0.80;99.90
6758;DHT22;3416;53.074;8.822;2023-03-01T04:07:44;0.80;99.90
6758;DHT22;3416;53.074;8.822;2023-03-01T04:10:14;0.80;99.90
6758;DHT22;3416;53.074;8.822;2023-03-01T04:12:41;0.80;99.90
6758;DHT22;3416;53.074;8.822;2023-03-01T04:15:10;0.80;99.90
6758;DHT22;3416;53.074;8.822;2023-03-01T04:17:39;0.80;99.90
6758;DHT22;3416;53.074;8.822;2023-03-01T04:20:10;0.80;99.90
6758;DHT22;3416;53.074;8.822;2023-03-01T04:22:58;0.70;99.90
6758;DHT22;3416;53.074;8.822;2023-03-01T04:25:25;0.80;99.90
6758;DHT22;3416;53.074;8.822;2023-03-01T04:27:52;0.80;99.90
6758;DHT22;3416;53.074;8.822;2023-03-01T04:30:19;1.00;99.90
6758;DHT22;3416;53.074;8.822;2023-03-01T04:32:53;0.90;99.90
6758;DHT22;3416;53.074;8.822;2023-03-01T04:35:21;0.90;99.90
6758;DHT22;3416;53.074;8.822;2023-03-01T04:37:49;0.90;99.90
6758;DHT22;3416;53.074;8.822;2023-03-01T04:40:16;1.10;99.90
6758;DHT22;3416;53.074;8.822;2023-03-01T04:42:43;1.10;99.90
6758;DHT22;3416;53.074;8.822;2023-03-01T04:45:10;1.20;99.90
6758;DHT22;3416;53.074;8.822;2023-03-01T04:47:41;1.30;99.90
6758;DHT22;3416;53.074;8.822;2023-03-01T04:50:11;1.30;99.90
6758;DHT22;3416;53.074;8.822;2023-03-01T04:52:40;1.30;99.90
6758;DHT22;3416;53.074;8.822;2023-03-01T04:55:08;1.40;99.90
6758;DHT22;3416;53.074;8.822;2023-03-01T04:57:36;1.40;99.90
6758;DHT22;3416;53.074;8.822;2023-03-01T05:00:03;1.30;99.90
6758;DHT22;3416;53.074;8.822;2023-03-01T05:02:50;1.30;99.90
6758;DHT22;3416;53.074;8.822;2023-03-01T05:05:20;1.30;99.90
6758;DHT22;3416;53.074;8.822;2023-03-01T05:07:53;1.20;99.90
6758;DHT22;3416;53.074;8.822;2023-03-01T05:10:20;1.10;99.90
6758;DHT22;3416;53.074;8.822;2023-03-01T05:12:53;1.10;99.90
6758;DHT22;3416;53.074;8.822;2023-03-01T05:15:22;1.00;99.90
6758;DHT22;3416;53.074;8.822;2023-03-01T05:17:51;1.00;99.90
6758;DHT22;3416;53.074;8.822;2023-03-01T05:20:18;1.00;99.90
6758;DHT22;3416;53.074;8.822;2023-03-01T05:22:48;0.90;99.90
6758;DHT22;3416;53.074;8.822;2023-03-01T05:25:17;0.90;99.90
6758;DHT22;3416;53.074;8.822;2023-03-01T05:27:44;0.80;99.90
6758;DHT22;3416;53.074;8.822;2023-03-01T05:30:14;0.90;99.90
6758;DHT22;3416;53.074;8.822;2023-03-01T05:32:44;0.90;99.90
6758;DHT22;3416;53.074;8.822;2023-03-01T05:35:19;0.70;99.90
6758;DHT22;3416;53.074;8.822;2023-03-01T05:37:48;0.90;99.90
6758;DHT22;3416;53.074;8.822;2023-03-01T05:40:18;0.90;99.90
6758;DHT22;3416;53.074;8.822;2023-03-01T05:42:47;0.90;99.90
6758;DHT22;3416;53.074;8.822;2023-03-01T05:45:15;0.80;99.90
6758;DHT22;3416;53.074;8.822;2023-03-01T05:47:44;0.80;99.90
6758;DHT22;3416;53.074;8.822;2023-03-01T05:50:13;0.80;99.90
6758;DHT22;3416;53.074;8.822;2023-03-01T05:52:44;0.80;99.90
6758;DHT22;3416;53.074;8.822;2023-03-01T05:55:13;0.80;99.90
6758;DHT22;3416;53.074;8.822;2023-03-01T05:57:42;0.70;99.90
6758;DHT22;3416;53.074;8.822;2023-03-01T06:00:10;0.50;99.90
6758;DHT22;3416;53.074;8.822;2023-03-01T06:02:38;0.50;99.90
6758;DHT22;3416;53.074;8.822;2023-03-01T06:05:07;0.50;99.90
6758;DHT22;3416;53.074;8.822;2023-03-01T06:07:35;0.40;99.90
6758;DHT22;3416;53.074;8.822;2023-03-01T06:10:05;0.40;99.90
6758;DHT22;3416;53.074;8.822;2023-03-01T06:12:32;0.40;99.90
6758;DHT22;3416;53.074;8.822;2023-03-01T06:15:01;0.30;99.90
6758;DHT22;3416;53.074;8.822;2023-03-01T06:17:29;0.40;99.90
6758;DHT22;3416;53.074;8.822;2023-03-01T06:19:57;0.40;99.90
6758;DHT22;3416;53.074;8.822;2023-03-01T06:22:24;0.50;99.90
6758;DHT22;3416;53.074;8.822;2023-03-01T06:24:51;0.50;99.90
6758;DHT22;3416;53.074;8.822;2023-03-01T06:27:18;0.60;99.90
6758;DHT22;3416;53.074;8.822;2023-03-01T06:29:45;0.70;99.90
6758;DHT22;3416;53.074;8.822;2023-03-01T06:32:13;0.80;99.90
6758;DHT22;3416;53.074;8.822;2023-03-01T06:34:40;0.90;99.90
6758;DHT22;3416;53.074;8.822;2023-03-01T06:37:07;1.00;99.90
6758;DHT22;3416;53.074;8.822;2023-03-01T06:39:34;1.10;99.90
6758;DHT22;3416;53.074;8.822;2023-03-01T06:42:02;1.20;99.90
6758;DHT22;3416;53.074;8.822;2023-03-01T06:44:29;1.30;99.90
6758;DHT22;3416;53.074;8.822;2023-03-01T06:46:57;1.40;99.90
6758;DHT22;3416;53.074;8.822;2023-03-01T06:49:25;1.50;99.90
6758;DHT22;3416;53.074;8.822;2023-03-01T06:51:52;1.50;99.90
6758;DHT22;3416;53.074;8.822;2023-03-01T06:54:19;1.50;99.90
6758;DHT22;3416;53.074;8.822;2023-03-01T06:56:48;1.60;99.90
6758;DHT22;3416;53.074;8.822;2023-03-01T06:59:16;1.50;99.90
6758;DHT22;3416;53.074;8.822;2023-03-01T07:01:43;1.40;99.90
6758;DHT22;3416;53.074;8.822;2023-03-01T07:04:10;1.30;99.90
6758;DHT22;3416;53.074;8.822;2023-03-01T07:06:39;1.30;99.90
6758;DHT22;3416;53.074;8.822;2023-03-01T07:09:06;1.40;99.90
6758;DHT22;3416;53.074;8.822;2023-03-01T07:11:33;1.30;99.90
6758;DHT22;3416;53.074;8.822;2023-03-01T07:14:02;1.40;99.90
6758;DHT22;3416;53.074;8.822;2023-03-01T07:16:29;1.60;99.90
6758;DHT22;3416;53.074;8.822;2023-03-01T07:18:56;1.80;99.90
6758;DHT22;3416;53.074;8.822;2023-03-01T07:21:23;1.80;99.90
6758;DHT22;3416;53.074;8.822;2023-03-01T07:23:51;2.00;99.90
6758;DHT22;3416;53.074;8.822;2023-03-01T07:26:18;2.20;99.90
6758;DHT22;3416;53.074;8.822;2023-03-01T07:28:45;2.50;99.90
6758;DHT22;3416;53.074;8.822;2023-03-01T07:31:12;2.90;99.90
6758;DHT22;3416;53.074;8.822;2023-03-01T07:33:42;3.20;99.90
6758;DHT22;3416;53.074;8.822;2023-03-01T07:36:09;3.30;99.90
6758;DHT22;3416;53.074;8.822;2023-03-01T07:38:36;3.40;99.90
6758;DHT22;3416;53.074;8.822;2023-03-01T07:41:05;3.50;99.90
6758;DHT22;3416;53.074;8.822;2023-03-01T07:43:33;3.40;99.90
6758;DHT22;3416;53.074;8.822;2023-03-01T07:46:01;3.60;99.90
6758;DHT22;3416;53.074;8.822;2023-03-01T07:48:35;3.70;99.90
6758;DHT22;3416;53.074;8.822;2023-03-01T07:51:04;3.80;99.90
6758;DHT22;3416;53.074;8.822;2023-03-01T07:53:32;3.90;99.90
6758;DHT22;3416;53.074;8.822;2023-03-01T07:56:06;4.00;99.90
6758;DHT22;3416;53.074;8.822;2023-03-01T07:58:35;4.00;99.90
6758;DHT22;3416;53.074;8.822;2023-03-01T08:01:06;4.10;99.90
6758;DHT22;3416;53.074;8.822;2023-03-01T08:03:37;4.20;99.90
6758;DHT22;3416;53.074;8.822;2023-03-01T08:06:06;4.40;99.90
6758;DHT22;3416;53.074;8.822;2023-03-01T08:08:34;4.50;99.90
6758;DHT22;3416;53.074;8.822;2023-03-01T08:11:04;4.40;99.90
6758;DHT22;3416;53.074;8.822;2023-03-01T08:13:32;4.30;99.90
6758;DHT22;3416;53.074;8.822;2023-03-01T08:16:01;4.40;99.90
6758;DHT22;3416;53.074;8.822;2023-03-01T08:18:28;4.50;99.90
6758;DHT22;3416;53.074;8.822;2023-03-01T08:21:02;4.90;99.90
6758;DHT22;3416;53.074;8.822;2023-03-01T08:23:29;5.80;99.90
6758;DHT22;3416;53.074;8.822;2023-03-01T08:26:05;6.80;99.90
6758;DHT22;3416;53.074;8.822;2023-03-01T08:28:33;8.10;99.90
6758;DHT22;3416;53.074;8.822;2023-03-01T08:31:01;9.00;99.90
6758;DHT22;3416;53.074;8.822;2023-03-01T08:33:28;9.30;97.80
6758;DHT22;3416;53.074;8.822;2023-03-01T08:36:03;9.40;96.90
6758;DHT22;3416;53.074;8.822;2023-03-01T08:38:30;9.60;95.90
6758;DHT22;3416;53.074;8.822;2023-03-01T08:41:00;10.20;94.60
6758;DHT22;3416;53.074;8.822;2023-03-01T08:43:28;10.50;93.30
6758;DHT22;3416;53.074;8.822;2023-03-01T08:45:57;10.10;92.40
6758;DHT22;3416;53.074;8.822;2023-03-01T08:48:24;10.00;93.00
6758;DHT22;3416;53.074;8.822;2023-03-01T08:50:52;9.50;93.50
6758;DHT22;3416;53.074;8.822;2023-03-01T08:53:19;9.30;94.00
6758;DHT22;3416;53.074;8.822;2023-03-01T08:56:03;9.30;94.90
6758;DHT22;3416;53.074;8.822;2023-03-01T08:58:31;10.20;93.80
6758;DHT22;3416;53.074;8.822;2023-03-01T09:00:58;11.00;92.30
6758;DHT22;3416;53.074;8.822;2023-03-01T09:03:26;11.40;90.90
6758;DHT22;3416;53.074;8.822;2023-03-01T09:05:53;11.70;90.30
6758;DHT22;3416;53.074;8.822;2023-03-01T09:08:26;12.40;89.20
6758;DHT22;3416;53.074;8.822;2023-03-01T09:10:53;13.10;86.50
6758;DHT22;3416;53.074;8.822;2023-03-01T09:13:32;13.50;84.70
6758;DHT22;3416;53.074;8.822;2023-03-01T09:16:00;14.00;81.80
6758;DHT22;3416;53.074;8.822;2023-03-01T09:18:27;14.40;77.40
6758;DHT22;3416;53.074;8.822;2023-03-01T09:21:01;15.10;80.40
6758;DHT22;3416;53.074;8.822;2023-03-01T09:23:33;15.60;73.30
6758;DHT22;3416;53.074;8.822;2023-03-01T09:26:00;16.00;74.10
6758;DHT22;3416;53.074;8.822;2023-03-01T09:28:27;16.50;73.30
6758;DHT22;3416;53.074;8.822;2023-03-01T09:30:59;16.60;69.70
6758;DHT22;3416;53.074;8.822;2023-03-01T09:33:27;16.40;71.30
6758;DHT22;3416;53.074;8.822;2023-03-01T09:35:57;16.80;74.10
6758;DHT22;3416;53.074;8.822;2023-03-01T09:38:23;17.40;71.40
6758;DHT22;3416;53.074;8.822;2023-03-01T09:40:52;18.10;68.30
6758;DHT22;3416;53.074;8.822;2023-03-01T09:43:23;18.20;65.50
6758;DHT22;3416;53.074;8.822;2023-03-01T09:45:55;18.30;64.60
6758;DHT22;3416;53.074;8.822;2023-03-01T09:48:26;18.20;64.50
6758;DHT22;3416;53.074;8.822;2023-03-01T09:50:56;18.30;64.40
6758;DHT22;3416;53.074;8.822;2023-03-01T09:53:27;18.30;64.90
6758;DHT22;3416;53.074;8.822;2023-03-01T09:56:01;17.80;62.70
6758;DHT22;3416;53.074;8.822;2023-03-01T09:58:37;17.70;63.90
6758;DHT22;3416;53.074;8.822;2023-03-01T10:01:27;18.00;62.20
6758;DHT22;3416;53.074;8.822;2023-03-01T10:04:27;18.50;59.40
6758;DHT22;3416;53.074;8.822;2023-03-01T10:07:05;18.70;60.00
6758;DHT22;3416;53.074;8.822;2023-03-01T10:09:35;18.50;60.60
6758;DHT22;3416;53.074;8.822;2023-03-01T10:12:07;18.70;59.40
6758;DHT22;3416;53.074;8.822;2023-03-01T10:14:37;18.70;59.70
6758;DHT22;3416;53.074;8.822;2023-03-01T10:17:10;18.50;59.90
6758;DHT22;3416;53.074;8.822;2023-03-01T10:19:42;18.30;60.50
6758;DHT22;3416;53.074;8.822;2023-03-01T10:22:15;18.00;59.70
6758;DHT22;3416;53.074;8.822;2023-03-01T10:24:43;17.70;61.20
6758;DHT22;3416;53.074;8.822;2023-03-01T10:27:17;17.30;59.80
6758;DHT22;3416;53.074;8.822;2023-03-01T10:29:50;16.70;61.00
6758;DHT22;3416;53.074;8.822;2023-03-01T10:32:20;16.20;61.50
6758;DHT22;3416;53.074;8.822;2023-03-01T10:34:49;16.00;63.30
6758;DHT22;3416;53.074;8.822;2023-03-01T10:37:19;15.80;64.30
6758;DHT22;3416;53.074;8.822;2023-03-01T10:39:58;15.70;63.60
6758;DHT22;3416;53.074;8.822;2023-03-01T10:42:33;15.50;64.30
6758;DHT22;3416;53.074;8.822;2023-03-01T10:45:16;15.50;67.50
6758;DHT22;3416;53.074;8.822;2023-03-01T10:47:43;15.70;66.90
6758;DHT22;3416;53.074;8.822;2023-03-01T10:50:20;15.80;66.40
6758;DHT22;3416;53.074;8.822;2023-03-01T10:52:57;15.40;68.30
6758;DHT22;3416;53.074;8.822;2023-03-01T10:55:28;15.30;70.10
6758;DHT22;3416;53.074;8.822;2023-03-01T10:58:09;15.40;69.70
6758;DHT22;3416;53.074;8.822;2023-03-01T11:00:46;15.20;69.10
6758;DHT22;3416;53.074;8.822;2023-03-01T11:03:16;15.10;70.70
6758;DHT22;3416;53.074;8.822;2023-03-01T11:05:57;15.20;71.90
6758;DHT22;3416;53.074;8.822;2023-03-01T11:08:42;15.30;73.10
6758;DHT22;3416;53.074;8.822;2023-03-01T11:11:23;15.40;72.80
6758;DHT22;3416;53.074;8.822;2023-03-01T11:13:54;15.10;72.70
6758;DHT22;3416;53.074;8.822;2023-03-01T11:16:31;14.80;72.50
6758;DHT22;3416;53.074;8.822;2023-03-01T11:19:13;14.80;72.70
6758;DHT22;3416;53.074;8.822;2023-03-01T11:21:47;14.30;73.30
6758;DHT22;3416;53.074;8.822;2023-03-01T11:24:17;13.80;74.00
6758;DHT22;3416;53.074;8.822;2023-03-01T11:26:51;13.70;76.50
6758;DHT22;3416;53.074;8.822;2023-03-01T11:29:26;13.70;76.70
6758;DHT22;3416;53.074;8.822;2023-03-01T11:31:57;13.60;77.80
6758;DHT22;3416;53.074;8.822;2023-03-01T11:34:36;13.20;78.40
6758;DHT22;3416;53.074;8.822;2023-03-01T11:37:15;13.20;80.20
6758;DHT22;3416;53.074;8.822;2023-03-01T11:39:55;13.20;79.60
6758;DHT22;3416;53.074;8.822;2023-03-01T11:42:35;13.30;79.80
6758;DHT22;3416;53.074;8.822;2023-03-01T11:45:09;13.20;80.50
6758;DHT22;3416;53.074;8.822;2023-03-01T11:50:45;12.50;83.10
6758;DHT22;3416;53.074;8.822;2023-03-01T11:53:34;11.90;84.50
6758;DHT22;3416;53.074;8.822;2023-03-01T11:56:11;11.40;86.40
6758;DHT22;3416;53.074;8.822;2023-03-01T11:59:09;10.90;88.00
6758;DHT22;3416;53.074;8.822;2023-03-01T12:02:07;10.60;90.10
6758;DHT22;3416;53.074;8.822;2023-03-01T12:05:03;10.50;91.00
6758;DHT22;3416;53.074;8.822;2023-03-01T12:07:41;10.00;91.50
6758;DHT22;3416;53.074;8.822;2023-03-01T12:10:24;10.10;92.10
6758;DHT22;3416;53.074;8.822;2023-03-01T12:13:19;10.30;92.30
6758;DHT22;3416;53.074;8.822;2023-03-01T12:16:04;10.50;92.10
6758;DHT22;3416;53.074;8.822;2023-03-01T12:18:51;10.70;92.00
6758;DHT22;3416;53.074;8.822;2023-03-01T12:21:35;11.00;92.00
6758;DHT22;3416;53.074;8.822;2023-03-01T12:24:27;11.10;91.60
6758;DHT22;3416;53.074;8.822;2023-03-01T12:27:11;11.10;91.50
6758;DHT22;3416;53.074;8.822;2023-03-01T12:29:42;10.80;91.70
6758;DHT22;3416;53.074;8.822;2023-03-01T12:32:30;10.70;91.90
6758;DHT22;3416;53.074;8.822;2023-03-01T12:35:10;10.50;92.30
6758;DHT22;3416;53.074;8.822;2023-03-01T12:37:51;10.20;92.40
6758;DHT22;3416;53.074;8.822;2023-03-01T12:40:54;10.10;92.90
6758;DHT22;3416;53.074;8.822;2023-03-01T12:43:36;9.90;93.60
6758;DHT22;3416;53.074;8.822;2023-03-01T12:46:15;9.80;93.80
6758;DHT22;3416;53.074;8.822;2023-03-01T12:48:54;9.60;94.00
6758;DHT22;3416;53.074;8.822;2023-03-01T12:51:28;9.60;94.70
6758;DHT22;3416;53.074;8.822;2023-03-01T12:53:59;9.70;95.10
6758;DHT22;3416;53.074;8.822;2023-03-01T12:56:30;9.90;94.80
6758;DHT22;3416;53.074;8.822;2023-03-01T12:59:05;10.10;94.00
6758;DHT22;3416;53.074;8.822;2023-03-01T13:01:42;9.80;94.30
6758;DHT22;3416;53.074;8.822;2023-03-01T13:04:27;9.50;94.80
6758;DHT22;3416;53.074;8.822;2023-03-01T13:07:04;9.60;95.20
6758;DHT22;3416;53.074;8.822;2023-03-01T13:09:40;9.50;95.20
6758;DHT22;3416;53.074;8.822;2023-03-01T13:15:35;9.60;95.30
6758;DHT22;3416;53.074;8.822;2023-03-01T13:18:25;9.50;95.60
6758;DHT22;3416;53.074;8.822;2023-03-01T13:20:52;9.50;95.60
6758;DHT22;3416;53.074;8.822;2023-03-01T13:23:30;9.40;95.50
6758;DHT22;3416;53.074;8.822;2023-03-01T13:26:06;9.20;95.40
6758;DHT22;3416;53.074;8.822;2023-03-01T13:28:56;9.40;95.20
6758;DHT22;3416;53.074;8.822;2023-03-01T13:34:50;9.40;95.40
6758;DHT22;3416;53.074;8.822;2023-03-01T13:37:29;9.40;95.40
6758;DHT22;3416;53.074;8.822;2023-03-01T13:39:59;9.60;95.40
6758;DHT22;3416;53.074;8.822;2023-03-01T13:42:42;9.70;95.00
6758;DHT22;3416;53.074;8.822;2023-03-01T13:45:33;9.80;94.90
6758;DHT22;3416;53.074;8.822;2023-03-01T13:48:04;10.00;94.30
6758;DHT22;3416;53.074;8.822;2023-03-01T13:50:45;10.00;94.10
6758;DHT22;3416;53.074;8.822;2023-03-01T13:53:17;10.10;94.20
6758;DHT22;3416;53.074;8.822;2023-03-01T13:55:46;10.10;94.20
6758;DHT22;3416;53.074;8.822;2023-03-01T13:58:22;10.10;94.20
6758;DHT22;3416;53.074;8.822;2023-03-01T14:00:56;10.10;94.10
6758;DHT22;3416;53.074;8.822;2023-03-01T14:03:24;10.10;94.20
6758;DHT22;3416;53.074;8.822;2023-03-01T14:06:01;10.10;94.20
6758;DHT22;3416;53.074;8.822;2023-03-01T14:08:30;10.20;94.10
6758;DHT22;3416;53.074;8.822;2023-03-01T14:11:25;10.30;93.90
6758;DHT22;3416;53.074;8.822;2023-03-01T14:17:16;10.10;94.20
6758;DHT22;3416;53.074;8.822;2023-03-01T14:19:47;10.10;94.20
6758;DHT22;3416;53.074;8.822;2023-03-01T14:22:24;10.10;94.20
6758;DHT22;3416;53.074;8.822;2023-03-01T14:24:57;10.10;94.30
6758;DHT22;3416;53.074;8.822;2023-03-01T14:27:29;10.10;94.20
6758;DHT22;3416;53.074;8.822;2023-03-01T14:29:58;10.10;94.40
6758;DHT22;3416;53.074;8.822;2023-03-01T14:32:28;10.20;94.70
6758;DHT22;3416;53.074;8.822;2023-03-01T14:34:57;10.40;94.30
6758;DHT22;3416;53.074;8.822;2023-03-01T14:37:28;10.40;94.00
6758;DHT22;3416;53.074;8.822;2023-03-01T14:39:56;10.40;94.00
6758;DHT22;3416;53.074;8.822;2023-03-01T14:42:26;10.50;94.10
6758;DHT22;3416;53.074;8.822;2023-03-01T14:44:55;10.50;93.90
6758;DHT22;3416;53.074;8.822;2023-03-01T14:47:26;10.60;93.80
6758;DHT22;3416;53.074;8.822;2023-03-01T14:49:58;10.60;93.80
6758;DHT22;3416;53.074;8.822;2023-03-01T14:52:33;10.60;93.80
6758;DHT22;3416;53.074;8.822;2023-03-01T14:55:04;10.50;93.80
6758;DHT22;3416;53.074;8.822;2023-03-01T14:57:31;10.30;93.90
6758;DHT22;3416;53.074;8.822;2023-03-01T15:00:00;10.10;94.10
6758;DHT22;3416;53.074;8.822;2023-03-01T15:02:31;10.10;94.40
6758;DHT22;3416;53.074;8.822;2023-03-01T15:05:01;10.00;94.50
6758;DHT22;3416;53.074;8.822;2023-03-01T15:07:33;10.00;94.50
6758;DHT22;3416;53.074;8.822;2023-03-01T15:10:02;9.70;95.50
6758;DHT22;3416;53.074;8.822;2023-03-01T15:12:37;9.60;95.70
6758;DHT22;3416;53.074;8.822;2023-03-01T15:15:34;9.60;95.90
6758;DHT22;3416;53.074;8.822;2023-03-01T15:18:03;9.80;95.80
6758;DHT22;3416;53.074;8.822;2023-03-01T15:20:33;9.70;95.80
6758;DHT22;3416;53.074;8.822;2023-03-01T15:23:04;9.80;95.90
6758;DHT22;3416;53.074;8.822;2023-03-01T15:25:32;9.90;95.90
6758;DHT22;3416;53.074;8.822;2023-03-01T15:28:01;9.90;96.00
6758;DHT22;3416;53.074;8.822;2023-03-01T15:30:32;9.90;96.30
6758;DHT22;3416;53.074;8.822;2023-03-01T15:33:20;9.90;96.40
6758;DHT22;3416;53.074;8.822;2023-03-01T15:35:56;10.00;96.00
6758;DHT22;3416;53.074;8.822;2023-03-01T15:38:32;10.10;96.10
6758;DHT22;3416;53.074;8.822;2023-03-01T15:41:02;10.10;96.70
6758;DHT22;3416;53.074;8.822;2023-03-01T15:43:44;10.10;97.00
6758;DHT22;3416;53.074;8.822;2023-03-01T15:46:25;10.10;96.50
6758;DHT22;3416;53.074;8.822;2023-03-01T15:48:56;10.00;96.60
6758;DHT22;3416;53.074;8.822;2023-03-01T15:51:29;9.90;97.10
6758;DHT22;3416;53.074;8.822;2023-03-01T15:53:59;9.90;97.30
6758;DHT22;3416;53.074;8.822;2023-03-01T15:56:27;9.80;97.30
6758;DHT22;3416;53.074;8.822;2023-03-01T15:58:58;9.80;97.10
6758;DHT22;3416;53.074;8.822;2023-03-01T16:01:26;9.80;97.10
6758;DHT22;3416;53.074;8.822;2023-03-01T16:03:54;9.80;97.20
6758;DHT22;3416;53.074;8.822;2023-03-01T16:06:22;9.70;97.30
6758;DHT22;3416;53.074;8.822;2023-03-01T16:08:49;9.60;97.30
6758;DHT22;3416;53.074;8.822;2023-03-01T16:11:19;9.50;97.50
6758;DHT22;3416;53.074;8.822;2023-03-01T16:13:46;9.40;97.60
6758;DHT22;3416;53.074;8.822;2023-03-01T16:16:15;9.30;97.90
6758;DHT22;3416;53.074;8.822;2023-03-01T16:18:44;9.30;98.20
6758;DHT22;3416;53.074;8.822;2023-03-01T16:21:13;9.20;98.50
6758;DHT22;3416;53.074;8.822;2023-03-01T16:23:41;9.20;98.50
6758;DHT22;3416;53.074;8.822;2023-03-01T16:26:08;9.20;98.60
6758;DHT22;3416;53.074;8.822;2023-03-01T16:28:40;9.20;98.40
6758;DHT22;3416;53.074;8.822;2023-03-01T16:31:08;9.10;98.60
6758;DHT22;3416;53.074;8.822;2023-03-01T16:33:38;9.00;98.60
6758;DHT22;3416;53.074;8.822;2023-03-01T16:36:09;8.90;98.90
6758;DHT22;3416;53.074;8.822;2023-03-01T16:38:39;8.80;99.00
6758;DHT22;3416;53.074;8.822;2023-03-01T16:41:12;8.80;99.20
6758;DHT22;3416;53.074;8.822;2023-03-01T16:43:40;8.80;99.50
6758;DHT22;3416;53.074;8.822;2023-03-01T16:46:10;8.80;99.70
6758;DHT22;3416;53.074;8.822;2023-03-01T16:48:37;8.80;99.90
6758;DHT22;3416;53.074;8.822;2023-03-01T16:51:05;8.70;99.90
6758;DHT22;3416;53.074;8.822;2023-03-01T16:53:33;8.60;99.90
6758;DHT22;3416;53.074;8.822;2023-03-01T16:56:03;8.60;99.90
6758;DHT22;3416;53.074;8.822;2023-03-01T16:58:30;8.50;99.90